createdAt,value
2018-07-22T00:00:38.382Z,70.60
2018-07-22T00:01:43.162Z,70.70
2018-07-22T00:03:59.433Z,70.70
2018-07-22T00:05:05.151Z,70.40
2018-07-22T00:06:11.744Z,70.50
2018-07-22T00:07:16.684Z,71.00
2018-07-22T00:08:21.430Z,70.90
2018-07-22T00:09:27.441Z,70.80
2018-07-22T00:10:32.571Z,70.80
2018-07-22T00:11:38.221Z,71.00
2018-07-22T00:12:43.460Z,71.10
2018-07-22T00:13:52.273Z,71.20
2018-07-22T00:14:56.778Z,71.10
2018-07-22T00:16:01.360Z,71.10
2018-07-22T00:17:06.003Z,71.00
2018-07-22T00:18:10.621Z,71.00
2018-07-22T00:19:15.401Z,71.00
2018-07-22T00:20:20.475Z,70.80
2018-07-22T00:21:26.263Z,70.90
2018-07-22T00:22:32.212Z,71.00
2018-07-22T00:23:36.922Z,70.80
2018-07-22T00:24:52.500Z,70.70
2018-07-22T00:26:00.157Z,70.70
2018-07-22T00:27:06.232Z,70.40
2018-07-22T00:28:10.805Z,70.70
2018-07-22T00:29:15.720Z,70.80
2018-07-22T00:30:20.267Z,70.60
2018-07-22T00:31:25.441Z,70.60
2018-07-22T00:32:31.865Z,70.70
2018-07-22T00:33:36.587Z,70.70
2018-07-22T00:34:41.124Z,70.50
2018-07-22T00:35:46.804Z,70.60
2018-07-22T00:36:52.913Z,70.90
2018-07-22T00:37:58.449Z,70.90
2018-07-22T00:39:03.054Z,71.00
2018-07-22T00:40:09.809Z,70.90
2018-07-22T00:41:14.340Z,70.80
2018-07-22T00:42:19.206Z,70.80
2018-07-22T00:43:25.639Z,70.70
2018-07-22T00:44:31.164Z,70.80
2018-07-22T00:45:36.699Z,70.50
2018-07-22T00:46:41.255Z,70.50
2018-07-22T00:47:47.275Z,70.50
2018-07-22T00:48:51.793Z,70.60
2018-07-22T00:49:56.364Z,70.50
2018-07-22T00:51:03.279Z,70.40
2018-07-22T00:54:15.466Z,70.30
2018-07-22T00:55:20.648Z,70.40
2018-07-22T00:56:25.795Z,70.30
2018-07-22T00:57:31.824Z,70.30
2018-07-22T00:58:37.186Z,70.50
2018-07-22T00:59:43.116Z,70.50
2018-07-22T01:00:50.543Z,70.40
2018-07-22T01:01:55.137Z,70.80
2018-07-22T01:03:01.276Z,70.80
2018-07-22T01:04:06.259Z,70.70
2018-07-22T01:05:11.095Z,70.40
2018-07-22T01:06:16.472Z,71.60
2018-07-22T01:08:25.684Z,71.00
2018-07-22T01:09:30.201Z,70.90
2018-07-22T01:10:35.932Z,70.80
2018-07-22T01:11:41.613Z,70.90
2018-07-22T01:12:46.337Z,71.00
2018-07-22T01:13:52.095Z,70.90
2018-07-22T01:14:57.475Z,70.60
2018-07-22T01:16:02.233Z,70.60
2018-07-22T01:17:07.872Z,70.80
2018-07-22T01:18:13.677Z,70.80
2018-07-22T01:19:18.153Z,70.90
2018-07-22T01:20:23.298Z,71.70
2018-07-22T01:21:28.294Z,70.80
2018-07-22T01:22:33.492Z,70.80
2018-07-22T01:23:38.188Z,70.80
2018-07-22T01:24:43.739Z,70.70
2018-07-22T01:25:48.627Z,71.50
2018-07-22T01:26:53.346Z,70.80
2018-07-22T01:27:58.852Z,70.60
2018-07-22T01:29:03.439Z,70.60
2018-07-22T01:30:11.222Z,70.70
2018-07-22T01:31:16.212Z,70.80
2018-07-22T01:32:21.848Z,70.60
2018-07-22T01:33:26.789Z,70.40
2018-07-22T01:34:32.440Z,70.60
2018-07-22T01:35:36.893Z,70.60
2018-07-22T01:36:41.331Z,70.70
2018-07-22T01:37:45.873Z,70.80
2018-07-22T01:38:50.880Z,70.60
2018-07-22T01:39:55.940Z,70.50
2018-07-22T01:41:00.645Z,70.30
2018-07-22T01:42:05.237Z,70.60
2018-07-22T01:43:09.828Z,70.70
2018-07-22T01:44:14.271Z,70.80
2018-07-22T01:45:19.024Z,70.70
2018-07-22T01:46:23.530Z,70.50
2018-07-22T01:47:28.230Z,70.60
2018-07-22T01:48:33.130Z,70.60
2018-07-22T01:49:37.817Z,70.40
2018-07-22T01:50:42.360Z,70.40
2018-07-22T01:51:47.259Z,70.40
2018-07-22T01:52:52.150Z,70.40
2018-07-22T01:53:56.920Z,70.20
2018-07-22T01:55:02.304Z,70.30
2018-07-22T01:56:07.485Z,70.30
2018-07-22T01:57:12.193Z,70.20
2018-07-22T01:58:17.076Z,70.30
2018-07-22T01:59:22.202Z,70.50
2018-07-22T02:00:28.820Z,70.50
2018-07-22T02:01:33.877Z,70.30
2018-07-22T02:02:39.124Z,70.40
2018-07-22T02:03:44.077Z,70.50
2018-07-22T02:04:49.076Z,70.40
2018-07-22T02:05:53.779Z,70.40
2018-07-22T02:06:58.667Z,71.60
2018-07-22T02:08:03.809Z,70.30
2018-07-22T02:09:10.914Z,70.60
2018-07-22T02:10:16.360Z,70.30
2018-07-22T02:11:20.897Z,70.70
2018-07-22T02:12:26.598Z,70.70
2018-07-22T02:13:31.212Z,70.70
2018-07-22T02:14:36.271Z,70.50
2018-07-22T02:15:40.738Z,70.40
2018-07-22T02:16:45.872Z,70.60
2018-07-22T02:17:50.633Z,70.70
2018-07-22T02:18:55.452Z,70.50
2018-07-22T02:20:00.191Z,71.10
2018-07-22T02:21:05.155Z,70.50
2018-07-22T02:22:09.707Z,70.50
2018-07-22T02:24:18.436Z,70.60
2018-07-22T02:25:22.948Z,70.50
2018-07-22T02:26:27.452Z,70.50
2018-07-22T02:27:31.943Z,70.40
2018-07-22T02:28:36.704Z,70.50
2018-07-22T02:29:41.233Z,70.30
2018-07-22T02:30:45.704Z,70.30
2018-07-22T02:31:50.577Z,70.50
2018-07-22T02:32:55.375Z,70.60
2018-07-22T02:33:59.939Z,70.40
2018-07-22T02:35:04.774Z,70.40
2018-07-22T02:36:09.473Z,70.70
2018-07-22T02:37:13.948Z,70.60
2018-07-22T02:38:18.449Z,70.50
2018-07-22T02:39:23.285Z,70.50
2018-07-22T02:40:28.207Z,70.60
2018-07-22T02:41:32.796Z,70.70
2018-07-22T02:42:37.385Z,70.90
2018-07-22T02:43:41.952Z,71.00
2018-07-22T02:44:47.227Z,71.00
2018-07-22T02:45:51.877Z,71.20
2018-07-22T02:46:56.349Z,71.30
2018-07-22T02:48:03.534Z,71.50
2018-07-22T02:50:12.207Z,71.60
2018-07-22T02:51:16.646Z,71.60
2018-07-22T02:52:24.610Z,71.40
2018-07-22T02:53:29.461Z,71.40
2018-07-22T02:54:34.073Z,71.50
2018-07-22T02:55:38.999Z,71.40
2018-07-22T02:56:43.829Z,71.30
2018-07-22T02:57:48.341Z,71.20
2018-07-22T02:58:52.817Z,71.40
2018-07-22T02:59:57.352Z,71.50
2018-07-22T03:01:02.145Z,71.50
2018-07-22T03:02:06.778Z,71.50
2018-07-22T03:03:11.791Z,71.60
2018-07-22T03:04:16.376Z,71.70
2018-07-22T03:05:20.889Z,71.80
2018-07-22T03:06:25.380Z,71.70
2018-07-22T03:07:29.928Z,71.40
2018-07-22T03:08:35.401Z,71.50
2018-07-22T03:09:40.245Z,71.50
2018-07-22T03:10:45.788Z,71.60
2018-07-22T03:11:50.461Z,71.60
2018-07-22T03:12:55.185Z,71.70
2018-07-22T03:13:59.961Z,71.80
2018-07-22T03:15:04.937Z,71.90
2018-07-22T03:16:09.682Z,72.00
2018-07-22T03:17:14.799Z,72.00
2018-07-22T03:18:19.700Z,72.00
2018-07-22T03:19:24.564Z,72.10
2018-07-22T03:20:30.010Z,72.10
2018-07-22T03:21:35.407Z,72.20
2018-07-22T03:22:39.965Z,72.30
2018-07-22T03:23:44.787Z,72.40
2018-07-22T03:24:49.798Z,72.40
2018-07-22T03:25:54.626Z,72.30
2018-07-22T03:26:59.087Z,72.30
2018-07-22T03:28:05.095Z,72.50
2018-07-22T03:29:09.808Z,72.40
2018-07-22T03:30:14.472Z,72.40
2018-07-22T03:31:19.192Z,72.50
2018-07-22T03:33:30.697Z,72.70
2018-07-22T03:34:35.580Z,72.80
2018-07-22T03:35:40.282Z,72.90
2018-07-22T03:36:45.223Z,72.90
2018-07-22T03:37:49.933Z,73.00
2018-07-22T03:38:54.388Z,73.00
2018-07-22T03:39:59.481Z,73.10
2018-07-22T03:41:05.035Z,73.00
2018-07-22T03:42:09.946Z,72.80
2018-07-22T03:43:15.008Z,72.80
2018-07-22T03:44:19.753Z,73.00
2018-07-22T03:45:24.415Z,72.90
2018-07-22T03:47:34.827Z,73.20
2018-07-22T03:48:39.623Z,73.00
2018-07-22T03:49:44.688Z,73.00
2018-07-22T03:50:49.359Z,73.00
2018-07-22T03:51:54.435Z,73.00
2018-07-22T03:52:59.282Z,73.10
2018-07-22T03:55:07.876Z,73.00
2018-07-22T03:56:12.627Z,73.10
2018-07-22T03:57:17.912Z,73.20
2018-07-22T03:58:22.965Z,73.00
2018-07-22T03:59:27.565Z,73.10
2018-07-22T04:00:33.795Z,73.20
2018-07-22T04:01:38.577Z,73.40
2018-07-22T04:02:43.297Z,73.60
2018-07-22T04:03:47.883Z,73.60
2018-07-22T04:04:52.556Z,73.80
2018-07-22T04:05:57.202Z,73.60
2018-07-22T04:07:02.049Z,73.60
2018-07-22T04:08:07.790Z,73.70
2018-07-22T04:09:12.377Z,73.70
2018-07-22T04:10:17.639Z,73.60
2018-07-22T04:11:23.739Z,73.40
2018-07-22T04:12:28.328Z,73.50
2018-07-22T04:13:33.530Z,73.60
2018-07-22T04:14:38.398Z,73.30
2018-07-22T04:15:43.228Z,73.30
2018-07-22T04:16:48.057Z,73.30
2018-07-22T04:17:52.973Z,72.20
2018-07-22T04:18:57.451Z,73.10
2018-07-22T04:20:03.115Z,73.30
2018-07-22T04:21:08.548Z,73.40
2018-07-22T04:22:13.988Z,73.50
2018-07-22T04:23:18.837Z,73.60
2018-07-22T04:24:23.457Z,73.80
2018-07-22T04:25:28.007Z,73.80
2018-07-22T04:26:32.953Z,73.90
2018-07-22T04:27:37.798Z,73.70
2018-07-22T04:28:42.464Z,73.70
2018-07-22T04:29:46.933Z,73.80
2018-07-22T04:30:51.717Z,73.80
2018-07-22T04:31:56.227Z,73.80
2018-07-22T04:33:00.865Z,73.90
2018-07-22T04:35:09.700Z,73.80
2018-07-22T04:37:20.091Z,73.90
2018-07-22T04:38:24.765Z,73.90
2018-07-22T04:39:29.805Z,73.90
2018-07-22T04:41:41.823Z,73.90
2018-07-22T04:42:46.354Z,73.60
2018-07-22T04:43:52.037Z,73.40
2018-07-22T04:44:57.180Z,73.60
2018-07-22T04:46:02.469Z,73.70
2018-07-22T04:47:07.162Z,73.70
2018-07-22T04:48:12.086Z,74.20
2018-07-22T04:49:17.167Z,74.00
2018-07-22T04:50:22.159Z,74.00
2018-07-22T04:51:26.638Z,74.00
2018-07-22T04:52:31.754Z,74.10
2018-07-22T04:53:36.542Z,74.30
2018-07-22T04:54:41.324Z,74.30
2018-07-22T04:55:46.071Z,74.30
2018-07-22T04:56:51.161Z,74.40
2018-07-22T04:57:55.863Z,74.40
2018-07-22T04:59:16.361Z,74.40
2018-07-22T05:00:21.247Z,74.60
2018-07-22T05:01:26.194Z,74.80
2018-07-22T05:02:30.711Z,74.70
2018-07-22T05:03:35.473Z,74.80
2018-07-22T05:04:40.154Z,74.90
2018-07-22T05:05:44.833Z,74.80
2018-07-22T05:06:49.678Z,74.90
2018-07-22T05:07:54.424Z,75.00
2018-07-22T05:08:59.198Z,74.90
2018-07-22T05:10:04.745Z,75.10
2018-07-22T05:11:09.953Z,75.00
2018-07-22T05:12:14.870Z,75.10
2018-07-22T05:13:20.160Z,74.90
2018-07-22T05:14:25.185Z,74.90
2018-07-22T05:15:30.207Z,74.90
2018-07-22T05:16:35.178Z,75.00
2018-07-22T05:17:40.456Z,74.90
2018-07-22T05:18:45.158Z,75.60
2018-07-22T05:23:01.649Z,74.80
2018-07-22T05:24:07.094Z,74.70
2018-07-22T05:25:11.706Z,74.60
2018-07-22T05:26:16.838Z,74.60
2018-07-22T05:27:21.358Z,74.80
2018-07-22T05:28:26.245Z,74.70
2018-07-22T05:29:30.854Z,74.70
2018-07-22T05:31:41.781Z,74.70
2018-07-22T05:32:46.776Z,74.50
2018-07-22T05:33:52.151Z,74.40
2018-07-22T05:34:57.128Z,74.60
2018-07-22T05:36:01.893Z,73.00
2018-07-22T05:37:07.092Z,74.70
2018-07-22T05:38:11.801Z,74.60
2018-07-22T05:39:16.700Z,74.80
2018-07-22T05:40:21.637Z,74.80
2018-07-22T05:41:27.344Z,74.90
2018-07-22T05:42:33.369Z,74.90
2018-07-22T05:43:38.747Z,74.60
2018-07-22T05:44:43.795Z,73.90
2018-07-22T05:45:48.295Z,75.10
2018-07-22T05:46:54.553Z,74.70
2018-07-22T05:47:59.121Z,74.70
2018-07-22T05:49:04.195Z,74.90
2018-07-22T05:50:10.532Z,74.90
2018-07-22T05:51:15.044Z,74.90
2018-07-22T05:52:19.755Z,74.90
2018-07-22T05:53:24.709Z,75.00
2018-07-22T05:54:29.174Z,75.10
2018-07-22T05:55:33.770Z,75.20
2018-07-22T05:56:38.579Z,75.00
2018-07-22T05:57:43.300Z,75.10
2018-07-22T05:58:47.812Z,75.30
2018-07-22T05:59:52.321Z,75.20
2018-07-22T06:00:57.756Z,75.30
2018-07-22T06:02:02.449Z,75.30
2018-07-22T06:03:08.672Z,75.00
2018-07-22T06:04:13.805Z,74.80
2018-07-22T06:05:18.768Z,75.00
2018-07-22T06:06:23.813Z,75.00
2018-07-22T06:07:28.714Z,74.90
2018-07-22T06:08:33.835Z,74.70
2018-07-22T06:09:39.090Z,74.90
2018-07-22T06:10:43.739Z,74.80
2018-07-22T06:12:52.589Z,74.70
2018-07-22T06:13:58.596Z,74.70
2018-07-22T06:15:03.377Z,74.40
2018-07-22T06:16:09.886Z,74.50
2018-07-22T06:17:15.404Z,74.60
2018-07-22T06:18:20.844Z,74.70
2018-07-22T06:19:29.242Z,74.60
2018-07-22T06:20:34.902Z,74.30
2018-07-22T06:21:41.176Z,74.20
2018-07-22T06:22:46.496Z,74.40
2018-07-22T06:23:52.325Z,74.60
2018-07-22T06:24:57.425Z,74.50
2018-07-22T06:26:02.220Z,74.50
2018-07-22T06:27:07.071Z,74.40
2018-07-22T06:28:12.763Z,74.60
2018-07-22T06:29:19.810Z,74.40
2018-07-22T06:30:25.065Z,74.10
2018-07-22T06:31:29.865Z,74.50
2018-07-22T06:32:34.506Z,74.80
2018-07-22T06:33:39.385Z,74.80
2018-07-22T06:34:44.445Z,74.90
2018-07-22T06:35:50.531Z,74.90
2018-07-22T06:36:55.428Z,75.10
2018-07-22T06:38:00.162Z,75.00
2018-07-22T06:39:07.112Z,74.90
2018-07-22T06:40:12.767Z,74.90
2018-07-22T06:41:17.875Z,74.90
2018-07-22T06:42:22.583Z,74.90
2018-07-22T06:43:27.166Z,75.10
2018-07-22T06:44:31.788Z,75.10
2018-07-22T06:45:37.674Z,75.10
2018-07-22T06:46:42.883Z,75.00
2018-07-22T06:47:47.730Z,75.40
2018-07-22T06:48:52.794Z,74.80
2018-07-22T06:51:02.325Z,75.60
2018-07-22T06:52:07.609Z,75.10
2018-07-22T06:53:12.752Z,74.90
2018-07-22T06:54:17.453Z,74.50
2018-07-22T06:55:23.064Z,74.20
2018-07-22T06:56:27.737Z,74.10
2018-07-22T06:57:32.447Z,74.00
2018-07-22T06:58:37.108Z,73.80
2018-07-22T06:59:41.673Z,74.00
2018-07-22T07:00:47.358Z,74.10
2018-07-22T07:01:54.160Z,73.80
2018-07-22T07:02:58.648Z,74.00
2018-07-22T07:04:03.341Z,74.20
2018-07-22T07:05:08.688Z,74.30
2018-07-22T07:07:17.845Z,74.60
2018-07-22T07:08:22.833Z,74.40
2018-07-22T07:10:32.481Z,74.30
2018-07-22T07:11:37.295Z,74.20
2018-07-22T07:12:42.179Z,74.00
2018-07-22T07:13:47.091Z,74.00
2018-07-22T07:14:51.713Z,74.00
2018-07-22T07:15:56.522Z,74.00
2018-07-22T07:17:01.172Z,74.00
2018-07-22T07:18:05.803Z,74.10
2018-07-22T07:19:10.652Z,74.10
2018-07-22T07:20:15.559Z,73.70
2018-07-22T07:21:20.205Z,73.80
2018-07-22T07:22:24.762Z,73.30
2018-07-22T07:23:30.413Z,73.40
2018-07-22T07:24:35.722Z,73.50
2018-07-22T07:25:42.212Z,73.70
2018-07-22T07:26:47.023Z,73.70
2018-07-22T07:27:52.226Z,73.80
2018-07-22T07:28:57.672Z,73.80
2018-07-22T07:30:02.267Z,73.50
2018-07-22T07:31:07.527Z,73.30
2018-07-22T07:32:13.744Z,73.20
2018-07-22T07:33:18.811Z,73.20
2018-07-22T07:34:24.232Z,71.40
2018-07-22T07:35:29.688Z,73.40
2018-07-22T07:36:36.953Z,73.30
2018-07-22T07:37:44.198Z,73.20
2018-07-22T07:38:49.450Z,72.80
2018-07-22T07:39:53.980Z,72.70
2018-07-22T07:41:00.533Z,72.50
2018-07-22T07:42:11.088Z,72.80
2018-07-22T07:43:16.329Z,73.10
2018-07-22T07:44:23.833Z,73.20
2018-07-22T07:45:28.455Z,73.10
2018-07-22T07:46:33.655Z,73.00
2018-07-22T07:47:39.697Z,73.30
2018-07-22T07:48:44.698Z,71.90
2018-07-22T07:49:51.014Z,71.80
2018-07-22T07:50:55.958Z,72.00
2018-07-22T07:52:00.793Z,72.30
2018-07-22T07:53:05.876Z,72.50
2018-07-22T07:54:11.137Z,72.10
2018-07-22T07:56:19.888Z,71.80
2018-07-22T07:57:25.099Z,72.00
2018-07-22T07:58:29.738Z,71.40
2018-07-22T07:59:35.902Z,71.60
2018-07-22T08:00:41.206Z,71.30
2018-07-22T08:01:45.812Z,71.30
2018-07-22T08:02:51.470Z,70.90
2018-07-22T08:03:56.450Z,70.70
2018-07-22T08:05:01.225Z,71.00
2018-07-22T08:06:09.204Z,71.00
2018-07-22T08:07:13.834Z,71.10
2018-07-22T08:08:19.628Z,71.00
2018-07-22T08:09:36.666Z,71.40
2018-07-22T08:10:42.545Z,71.70
2018-07-22T08:11:47.158Z,71.70
2018-07-22T08:12:53.878Z,71.90
2018-07-22T08:13:59.698Z,73.50
2018-07-22T08:15:04.459Z,71.50
2018-07-22T08:16:09.549Z,71.60
2018-07-22T08:17:14.628Z,71.30
2018-07-22T08:18:20.124Z,71.20
2018-07-22T08:19:25.322Z,71.20
2018-07-22T08:20:32.333Z,71.20
2018-07-22T08:21:39.298Z,70.30
2018-07-22T08:22:44.086Z,70.10
2018-07-22T08:23:49.622Z,70.30
2018-07-22T08:24:54.189Z,70.30
2018-07-22T08:25:59.206Z,70.40
2018-07-22T08:27:04.651Z,70.30
2018-07-22T08:28:15.026Z,70.00
2018-07-22T08:29:23.348Z,69.90
2018-07-22T08:30:28.559Z,70.10
2018-07-22T08:32:39.412Z,69.80
2018-07-22T08:33:44.819Z,70.10
2018-07-22T08:34:49.812Z,70.10
2018-07-22T08:35:55.329Z,70.10
2018-07-22T08:37:00.237Z,70.10
2018-07-22T08:38:06.011Z,69.80
2018-07-22T08:39:11.019Z,69.50
2018-07-22T08:40:15.708Z,69.40
2018-07-22T08:41:20.777Z,69.20
2018-07-22T08:42:26.917Z,69.10
2018-07-22T08:43:31.685Z,68.90
2018-07-22T08:44:37.148Z,68.70
2018-07-22T08:45:42.347Z,68.40
2018-07-22T08:46:47.355Z,68.30
2018-07-22T08:47:52.574Z,68.00
2018-07-22T08:50:01.480Z,67.30
2018-07-22T08:51:07.833Z,67.30
2018-07-22T08:52:12.365Z,67.50
2018-07-22T08:53:17.858Z,67.50
2018-07-22T08:54:26.335Z,67.30
2018-07-22T08:55:31.126Z,67.40
2018-07-22T08:56:36.448Z,67.30
2018-07-22T08:57:41.082Z,67.30
2018-07-22T08:58:46.331Z,67.10
2018-07-22T08:59:59.733Z,67.20
2018-07-22T09:01:05.554Z,66.50
2018-07-22T09:02:10.448Z,66.10
2018-07-22T09:03:17.039Z,65.70
2018-07-22T09:04:21.860Z,65.80
2018-07-22T09:05:26.659Z,66.10
2018-07-22T09:06:31.903Z,65.90
2018-07-22T09:07:37.150Z,64.90
2018-07-22T09:08:41.773Z,64.80
2018-07-22T09:09:47.183Z,64.40
2018-07-22T09:10:51.719Z,64.50
2018-07-22T09:11:56.466Z,63.70
2018-07-22T09:13:04.119Z,63.60
2018-07-22T09:14:09.282Z,63.80
2018-07-22T09:15:14.192Z,64.10
2018-07-22T09:16:19.211Z,63.40
2018-07-22T09:17:25.695Z,63.10
2018-07-22T09:18:31.465Z,63.00
2018-07-22T09:19:36.790Z,64.40
2018-07-22T09:20:42.136Z,62.10
2018-07-22T09:21:47.857Z,61.70
2018-07-22T09:22:52.915Z,61.90
2018-07-22T09:23:57.449Z,62.40
2018-07-22T09:25:03.398Z,62.10
2018-07-22T09:26:08.082Z,61.80
2018-07-22T09:27:12.709Z,61.20
2018-07-22T09:28:23.895Z,61.50
2018-07-22T09:29:28.435Z,61.40
2018-07-22T09:30:33.398Z,61.20
2018-07-22T09:31:37.980Z,61.00
2018-07-22T09:32:43.240Z,60.10
2018-07-22T09:33:47.960Z,60.10
2018-07-22T09:34:53.881Z,60.00
2018-07-22T09:35:59.918Z,58.90
2018-07-22T09:37:05.314Z,58.00
2018-07-22T09:38:11.674Z,57.80
2018-07-22T09:39:16.380Z,57.90
2018-07-22T09:40:22.594Z,57.50
2018-07-22T09:41:27.639Z,56.90
2018-07-22T09:42:33.806Z,57.70
2018-07-22T09:43:39.209Z,57.30
2018-07-22T09:44:45.780Z,57.30
2018-07-22T09:45:52.594Z,57.10
2018-07-22T09:46:59.559Z,55.40
2018-07-22T09:48:07.241Z,56.40
2018-07-22T09:49:12.566Z,56.30
2018-07-22T09:50:17.358Z,56.20
2018-07-22T09:51:21.821Z,55.90
2018-07-22T09:52:27.368Z,55.70
2018-07-22T09:53:32.275Z,55.70
2018-07-22T09:54:36.774Z,56.10
2018-07-22T09:55:41.503Z,54.50
2018-07-22T09:56:47.856Z,53.40
2018-07-22T09:57:52.674Z,53.80
2018-07-22T09:58:57.124Z,54.50
2018-07-22T10:00:07.486Z,53.20
2018-07-22T10:01:15.769Z,53.70
2018-07-22T10:02:20.416Z,53.80
2018-07-22T10:03:26.209Z,53.10
2018-07-22T10:04:30.946Z,51.90
2018-07-22T10:05:35.497Z,51.90
2018-07-22T10:06:40.771Z,51.90
2018-07-22T10:07:45.369Z,51.90
2018-07-22T10:08:51.400Z,52.50
2018-07-22T10:09:56.467Z,52.50
2018-07-22T10:11:01.713Z,52.00
2018-07-22T10:12:07.087Z,50.50
2018-07-22T10:13:12.342Z,50.10
2018-07-22T10:14:21.434Z,50.10
2018-07-22T10:15:26.690Z,50.30
2018-07-22T10:16:31.340Z,50.30
2018-07-22T10:17:36.919Z,49.80
2018-07-22T10:18:43.804Z,48.40
2018-07-22T10:19:50.428Z,48.10
2018-07-22T10:20:54.961Z,47.30
2018-07-22T10:22:14.122Z,47.40
2018-07-22T10:23:22.367Z,47.80
2018-07-22T10:24:29.442Z,48.20
2018-07-22T10:25:35.096Z,47.70
2018-07-22T10:26:41.077Z,48.60
2018-07-22T10:27:46.948Z,49.10
2018-07-22T10:28:51.819Z,48.90
2018-07-22T10:29:57.277Z,48.70
2018-07-22T10:31:02.635Z,47.80
2018-07-22T10:32:07.803Z,46.70
2018-07-22T10:33:13.448Z,45.80
2018-07-22T10:34:18.012Z,45.80
2018-07-22T10:35:26.510Z,45.70
2018-07-22T10:36:32.218Z,45.10
2018-07-22T10:38:41.094Z,45.10
2018-07-22T10:39:46.410Z,45.60
2018-07-22T10:40:54.878Z,45.90
2018-07-22T10:42:15.301Z,46.10
2018-07-22T10:43:24.588Z,45.70
2018-07-22T10:44:32.513Z,45.70
2018-07-22T10:45:47.272Z,44.70
2018-07-22T10:46:52.592Z,44.50
2018-07-22T10:47:57.663Z,44.50
2018-07-22T10:49:02.839Z,44.50
2018-07-22T10:51:22.419Z,44.30
2018-07-22T10:52:29.251Z,44.10
2018-07-22T10:53:34.929Z,43.20
2018-07-22T10:54:39.905Z,43.20
2018-07-22T10:55:45.068Z,43.60
2018-07-22T10:56:49.997Z,43.40
2018-07-22T10:57:55.793Z,43.20
2018-07-22T10:59:01.123Z,42.50
2018-07-22T11:00:07.295Z,42.10
2018-07-22T11:03:32.485Z,34.00
2018-07-22T11:04:39.692Z,31.00
2018-07-22T11:05:45.042Z,29.30
2018-07-22T11:06:49.842Z,27.30
2018-07-22T11:08:00.585Z,26.00
2018-07-22T11:09:11.764Z,25.20
2018-07-22T11:10:16.404Z,23.90
2018-07-22T11:11:21.923Z,22.50
2018-07-22T11:12:26.719Z,21.80
2018-07-22T11:13:33.076Z,20.90
2018-07-22T11:14:39.687Z,20.40
2018-07-22T11:15:45.668Z,19.70
2018-07-22T11:16:51.188Z,19.20
2018-07-22T11:17:56.199Z,18.70
2018-07-22T11:19:14.944Z,18.10
2018-07-22T11:20:22.916Z,17.70
2018-07-22T11:21:28.223Z,17.80
2018-07-22T11:22:35.095Z,16.80
2018-07-22T11:23:42.688Z,16.80
2018-07-22T11:24:48.331Z,16.10
2018-07-22T11:25:53.998Z,16.10
2018-07-22T11:27:00.719Z,15.90
2018-07-22T11:28:06.189Z,15.50
2018-07-22T11:29:10.897Z,15.50
2018-07-22T11:30:17.828Z,15.30
2018-07-22T11:31:22.960Z,14.80
2018-07-22T11:32:31.524Z,15.00
2018-07-22T11:33:37.416Z,15.00
2018-07-22T11:34:43.903Z,14.70
2018-07-22T11:35:49.330Z,14.80
2018-07-22T11:36:54.229Z,14.60
2018-07-22T11:37:59.431Z,14.40
2018-07-22T11:40:47.832Z,13.90
2018-07-22T11:41:53.269Z,14.00
2018-07-22T11:42:58.502Z,14.20
2018-07-22T11:44:08.725Z,14.10
2018-07-22T11:45:14.881Z,14.40
2018-07-22T11:46:20.465Z,14.30
2018-07-22T11:47:25.233Z,14.20
2018-07-22T11:48:32.423Z,14.10
2018-07-22T11:49:39.567Z,14.50
2018-07-22T11:50:45.837Z,14.50
2018-07-22T11:51:52.019Z,14.30
2018-07-22T11:52:58.290Z,14.80
2018-07-22T11:54:02.811Z,14.50
2018-07-22T11:55:08.434Z,14.90
2018-07-22T11:56:13.856Z,14.50
2018-07-22T11:57:19.821Z,14.70
2018-07-22T11:58:26.105Z,14.80
2018-07-22T11:59:30.940Z,15.60
2018-07-22T12:00:36.459Z,16.30
2018-07-22T12:01:42.030Z,16.90
2018-07-22T12:02:47.397Z,17.80
2018-07-22T12:03:53.835Z,18.80
2018-07-22T12:04:59.275Z,19.40
2018-07-22T12:06:05.307Z,20.10
2018-07-22T12:07:11.721Z,20.50
2018-07-22T12:08:23.630Z,21.20
2018-07-22T12:09:28.153Z,21.50
2018-07-22T12:10:33.255Z,22.40
2018-07-22T12:11:43.227Z,22.70
2018-07-22T12:12:47.742Z,23.60
2018-07-22T12:13:55.202Z,23.90
2018-07-22T12:15:00.856Z,24.80
2018-07-22T12:16:07.310Z,24.80
2018-07-22T12:17:14.090Z,25.80
2018-07-22T12:18:20.974Z,25.60
2018-07-22T12:19:26.782Z,25.60
2018-07-22T12:20:34.797Z,25.60
2018-07-22T12:21:39.654Z,25.90
2018-07-22T12:22:45.227Z,25.90
2018-07-22T12:23:50.961Z,26.00
2018-07-22T12:24:56.026Z,25.90
2018-07-22T12:26:01.405Z,25.80
2018-07-22T12:27:06.645Z,26.70
2018-07-22T12:28:11.195Z,26.90
2018-07-22T12:29:19.165Z,26.80
2018-07-22T12:30:30.334Z,26.80
2018-07-22T12:31:35.817Z,26.30
2018-07-22T12:32:43.357Z,26.70
2018-07-22T12:33:48.835Z,27.10
2018-07-22T12:34:54.544Z,27.50
2018-07-22T12:35:59.472Z,27.30
2018-07-22T12:37:04.150Z,27.40
2018-07-22T12:38:09.709Z,28.00
2018-07-22T12:39:14.907Z,27.70
2018-07-22T12:40:19.912Z,27.50
2018-07-22T12:41:25.335Z,27.40
2018-07-22T12:42:31.616Z,27.70
2018-07-22T12:43:36.297Z,28.10
2018-07-22T12:44:42.217Z,27.70
2018-07-22T12:45:49.300Z,28.60
2018-07-22T12:46:55.310Z,28.40
2018-07-22T12:48:00.386Z,28.10
2018-07-22T12:49:07.561Z,28.60
2018-07-22T12:50:15.221Z,28.50
2018-07-22T12:51:22.479Z,28.40
2018-07-22T12:52:28.258Z,28.40
2018-07-22T12:53:33.085Z,28.30
2018-07-22T12:54:39.597Z,28.40
2018-07-22T12:55:44.791Z,28.00
2018-07-22T12:56:50.244Z,28.40
2018-07-22T12:58:04.508Z,28.90
2018-07-22T12:59:11.466Z,28.30
2018-07-22T13:00:16.301Z,28.50
2018-07-22T13:01:20.819Z,28.50
2018-07-22T13:02:27.713Z,28.50
2018-07-22T13:03:32.637Z,28.40
2018-07-22T13:04:37.677Z,28.50
2018-07-22T13:05:42.402Z,27.90
2018-07-22T13:06:47.011Z,28.30
2018-07-22T13:07:52.199Z,28.30
2018-07-22T13:09:06.338Z,28.30
2018-07-22T13:10:16.475Z,28.90
2018-07-22T13:11:21.753Z,29.00
2018-07-22T13:12:26.615Z,29.20
2018-07-22T13:13:32.441Z,29.10
2018-07-22T13:14:39.168Z,29.10
2018-07-22T13:15:44.803Z,29.40
2018-07-22T13:16:49.953Z,29.80
2018-07-22T13:17:57.073Z,29.40
2018-07-22T13:19:02.458Z,29.40
2018-07-22T13:20:07.255Z,29.90
2018-07-22T13:21:14.215Z,29.80
2018-07-22T13:22:18.931Z,30.00
2018-07-22T13:23:23.615Z,29.50
2018-07-22T13:24:29.081Z,29.80
2018-07-22T13:26:39.033Z,30.40
2018-07-22T13:27:43.619Z,30.50
2018-07-22T13:28:49.012Z,30.30
2018-07-22T13:29:57.490Z,29.70
2018-07-22T13:31:03.127Z,29.70
2018-07-22T13:32:09.772Z,29.70
2018-07-22T13:33:19.679Z,30.00
2018-07-22T13:34:46.074Z,29.70
2018-07-22T13:35:50.838Z,29.30
2018-07-22T13:36:55.399Z,30.10
2018-07-22T13:38:00.491Z,30.20
2018-07-22T13:39:08.730Z,30.00
2018-07-22T13:40:14.448Z,29.80
2018-07-22T13:42:24.973Z,29.70
2018-07-22T13:43:30.415Z,30.20
2018-07-22T13:44:36.116Z,30.00
2018-07-22T13:45:40.717Z,29.20
2018-07-22T13:46:46.242Z,29.50
2018-07-22T13:47:54.120Z,30.00
2018-07-22T13:48:58.828Z,30.30
2018-07-22T13:50:06.119Z,30.70
2018-07-22T13:51:11.629Z,30.80
2018-07-22T13:52:16.199Z,30.60
2018-07-22T13:53:21.598Z,29.70
2018-07-22T13:54:27.677Z,30.00
2018-07-22T13:55:33.526Z,30.20
2018-07-22T13:56:38.377Z,30.40
2018-07-22T13:57:45.952Z,31.90
2018-07-22T13:58:54.535Z,30.50
2018-07-22T13:59:59.640Z,30.80
2018-07-22T14:01:04.389Z,31.30
2018-07-22T14:02:11.380Z,31.10
2018-07-22T14:03:18.214Z,32.40
2018-07-22T14:04:23.414Z,31.90
2018-07-22T14:05:29.062Z,31.10
2018-07-22T14:06:36.196Z,30.70
2018-07-22T14:07:41.698Z,29.90
2018-07-22T14:08:48.236Z,29.60
2018-07-22T14:09:57.648Z,29.80
2018-07-22T14:11:22.101Z,29.90
2018-07-22T14:12:27.866Z,30.00
2018-07-22T14:13:33.182Z,31.50
2018-07-22T14:14:38.556Z,31.90
2018-07-22T14:15:45.468Z,31.00
2018-07-22T14:16:51.208Z,30.60
2018-07-22T14:18:14.767Z,30.50
2018-07-22T14:19:21.516Z,30.20
2018-07-22T14:20:28.681Z,30.90
2018-07-22T14:21:34.378Z,29.80
2018-07-22T14:22:39.589Z,29.80
2018-07-22T14:25:03.695Z,31.50
2018-07-22T14:26:09.352Z,31.20
2018-07-22T14:27:22.006Z,31.90
2018-07-22T14:28:29.895Z,31.20
2018-07-22T14:29:34.609Z,30.80
2018-07-22T14:30:39.428Z,30.80
2018-07-22T14:31:45.830Z,31.00
2018-07-22T14:32:52.256Z,30.90
2018-07-22T14:34:00.784Z,31.20
2018-07-22T14:35:05.918Z,31.40
2018-07-22T14:36:13.021Z,31.00
2018-07-22T14:37:18.838Z,31.50
2018-07-22T14:38:24.219Z,31.50
2018-07-22T14:39:30.094Z,32.40
2018-07-22T14:40:35.907Z,31.50